createdAt,value
2022-12-03T00:00:27.307Z,14.07
2022-12-03T00:02:55.153Z,15.25
2022-12-03T00:05:22.719Z,15.07
2022-12-03T00:07:50.171Z,16.10
2022-12-03T00:10:17.834Z,17.95
2022-12-03T00:12:45.541Z,17.17
2022-12-03T00:15:13.393Z,17.02
2022-12-03T00:17:43.653Z,16.02
2022-12-03T00:20:24.150Z,16.73
2022-12-03T00:22:52.622Z,17.67
2022-12-03T00:25:20.100Z,16.35
2022-12-03T00:27:47.668Z,16.67
2022-12-03T00:30:17.678Z,17.98
2022-12-03T00:32:45.160Z,17.00
2022-12-03T00:35:12.558Z,16.10
2022-12-03T00:37:39.847Z,17.13
2022-12-03T00:40:08.470Z,16.98
2022-12-03T00:42:35.735Z,28.58
2022-12-03T00:45:04.929Z,16.30
2022-12-03T00:47:32.205Z,16.20
2022-12-03T00:49:59.482Z,16.73
2022-12-03T00:52:26.905Z,15.93
2022-12-03T00:54:54.473Z,15.75
2022-12-03T00:57:23.654Z,15.65
2022-12-03T00:59:51.469Z,16.02
2022-12-03T01:02:19.335Z,15.52
2022-12-03T01:04:47.010Z,16.48
2022-12-03T01:07:14.502Z,15.80
2022-12-03T01:09:41.748Z,16.45
2022-12-03T01:12:09.058Z,16.40
2022-12-03T01:14:38.725Z,16.95
2022-12-03T01:17:06.847Z,16.85
2022-12-03T01:19:35.328Z,17.20
2022-12-03T01:22:02.640Z,17.42
2022-12-03T01:24:29.996Z,17.10
2022-12-03T01:26:57.667Z,16.60
2022-12-03T01:29:25.426Z,16.27
2022-12-03T01:32:12.283Z,17.63
2022-12-03T01:34:39.721Z,17.50
2022-12-03T01:37:07.087Z,17.20
2022-12-03T01:39:37.029Z,16.30
2022-12-03T01:42:08.914Z,16.80
2022-12-03T01:44:40.231Z,15.73
2022-12-03T01:47:16.739Z,17.17
2022-12-03T01:49:56.822Z,15.80
2022-12-03T01:52:33.051Z,15.95
2022-12-03T01:55:10.836Z,16.33
2022-12-03T01:57:48.598Z,15.20
2022-12-03T02:00:21.063Z,16.35
2022-12-03T02:02:57.575Z,15.98
2022-12-03T02:05:31.314Z,16.67
2022-12-03T02:08:00.059Z,16.20
2022-12-03T02:10:34.926Z,14.90
2022-12-03T02:13:09.313Z,16.83
2022-12-03T02:15:40.138Z,16.02
2022-12-03T02:18:10.112Z,16.38
2022-12-03T02:21:19.219Z,15.32
2022-12-03T02:24:11.533Z,14.38
2022-12-03T02:26:39.078Z,15.57
2022-12-03T02:29:06.757Z,15.45
2022-12-03T02:31:34.309Z,14.13
2022-12-03T02:34:07.194Z,16.15
2022-12-03T02:36:36.360Z,16.30
2022-12-03T02:39:05.594Z,15.35
2022-12-03T02:41:51.657Z,15.77
2022-12-03T02:44:19.276Z,15.73
2022-12-03T02:46:46.912Z,14.82
2022-12-03T02:49:14.636Z,16.15
2022-12-03T02:51:42.105Z,17.20
2022-12-03T02:54:09.541Z,15.63
2022-12-03T02:56:37.222Z,16.02
2022-12-03T02:59:06.133Z,15.23
2022-12-03T03:01:35.202Z,15.48
2022-12-03T03:04:04.975Z,16.00
2022-12-03T03:06:33.174Z,16.48
2022-12-03T03:09:02.624Z,15.55
2022-12-03T03:11:30.460Z,16.35
2022-12-03T03:14:00.418Z,15.88
2022-12-03T03:16:30.194Z,16.10
2022-12-03T03:18:57.581Z,14.98
2022-12-03T03:21:28.051Z,15.75
2022-12-03T03:23:55.239Z,16.40
2022-12-03T03:26:22.670Z,16.33
2022-12-03T03:28:52.460Z,16.50
2022-12-03T03:31:24.406Z,16.08
2022-12-03T03:33:54.273Z,16.23
2022-12-03T03:36:23.409Z,16.13
2022-12-03T03:38:50.878Z,16.95
2022-12-03T03:41:22.163Z,15.32
2022-12-03T03:43:51.599Z,16.00
2022-12-03T03:46:22.533Z,15.75
2022-12-03T03:48:52.956Z,15.68
2022-12-03T03:51:21.019Z,15.02
2022-12-03T03:53:50.990Z,15.18
2022-12-03T03:56:23.881Z,16.10
2022-12-03T03:58:51.256Z,16.05
2022-12-03T04:01:19.536Z,16.35
2022-12-03T04:03:47.477Z,15.23
2022-12-03T04:06:14.869Z,16.17
2022-12-03T04:08:42.524Z,16.83
2022-12-03T04:11:33.270Z,16.33
2022-12-03T04:14:01.198Z,15.73
2022-12-03T04:16:28.559Z,14.52
2022-12-03T04:18:56.050Z,14.07
2022-12-03T04:21:43.341Z,15.77
2022-12-03T04:24:11.744Z,15.63
2022-12-03T04:26:58.474Z,16.38
2022-12-03T04:29:25.916Z,16.20
2022-12-03T04:32:12.278Z,16.00
2022-12-03T04:34:58.251Z,16.30
2022-12-03T04:37:25.720Z,15.20
2022-12-03T04:39:53.085Z,16.38
2022-12-03T04:42:20.509Z,16.67
2022-12-03T04:44:47.913Z,16.15
2022-12-03T04:47:21.619Z,16.20
2022-12-03T04:49:51.794Z,15.93
2022-12-03T04:52:22.262Z,16.90
2022-12-03T04:54:49.721Z,15.90
2022-12-03T04:57:17.813Z,15.50
2022-12-03T05:00:37.639Z,15.50
2022-12-03T05:02:48.624Z,16.27
2022-12-03T05:05:16.657Z,16.35
2022-12-03T05:07:44.057Z,16.20
2022-12-03T05:10:12.698Z,16.20
2022-12-03T05:12:39.885Z,15.88
2022-12-03T05:15:08.065Z,15.18
2022-12-03T05:17:35.332Z,16.27
2022-12-03T05:20:21.557Z,17.17
2022-12-03T05:22:49.191Z,15.43
2022-12-03T05:25:19.728Z,16.15
2022-12-03T05:27:48.322Z,14.88
2022-12-03T05:30:16.046Z,16.38
2022-12-03T05:32:43.352Z,16.98
2022-12-03T05:35:11.316Z,15.02
2022-12-03T05:37:38.699Z,15.85
2022-12-03T05:40:07.410Z,15.25
2022-12-03T05:42:53.723Z,16.23
2022-12-03T05:45:25.801Z,15.82
2022-12-03T05:47:56.176Z,15.43
2022-12-03T05:50:28.127Z,16.15
2022-12-03T05:53:07.899Z,14.90
2022-12-03T05:56:09.149Z,15.25
2022-12-03T05:58:36.439Z,16.60
2022-12-03T06:01:04.074Z,15.18
2022-12-03T06:03:31.925Z,15.15
2022-12-03T06:05:59.967Z,15.75
2022-12-03T06:08:27.563Z,16.17
2022-12-03T06:11:01.421Z,14.95
2022-12-03T06:13:28.913Z,15.40
2022-12-03T06:15:56.523Z,16.27
2022-12-03T06:18:23.923Z,16.52
2022-12-03T06:20:51.267Z,16.20
2022-12-03T06:23:18.504Z,16.20
2022-12-03T06:25:45.830Z,16.25
2022-12-03T06:28:13.223Z,16.00
2022-12-03T06:30:40.751Z,16.80
2022-12-03T06:33:08.190Z,16.65
2022-12-03T06:35:37.825Z,15.55
2022-12-03T06:38:05.161Z,16.08
2022-12-03T06:40:32.577Z,17.55
2022-12-03T06:43:00.013Z,16.98
2022-12-03T06:45:27.398Z,17.42
2022-12-03T06:47:54.555Z,16.10
2022-12-03T06:50:21.794Z,16.52
2022-12-03T06:52:49.059Z,17.23
2022-12-03T06:55:17.531Z,17.50
2022-12-03T06:57:44.802Z,16.67
2022-12-03T07:00:13.452Z,17.90
2022-12-03T07:02:49.089Z,16.92
2022-12-03T07:05:17.042Z,17.23
2022-12-03T07:07:44.321Z,18.73
2022-12-03T07:10:12.457Z,18.55
2022-12-03T07:12:39.744Z,18.33
2022-12-03T07:15:08.056Z,18.33
2022-12-03T07:17:35.603Z,18.98
2022-12-03T07:20:04.949Z,20.27
2022-12-03T07:22:33.142Z,19.27
2022-12-03T07:25:00.451Z,18.63
2022-12-03T07:27:27.899Z,19.70
2022-12-03T07:29:57.495Z,19.88
2022-12-03T07:32:24.704Z,19.33
2022-12-03T07:34:52.572Z,17.67
2022-12-03T07:37:23.088Z,19.02
2022-12-03T07:39:52.543Z,18.88
2022-12-03T07:42:19.831Z,18.00
2022-12-03T07:44:47.256Z,18.30
2022-12-03T07:47:14.876Z,18.20
2022-12-03T07:49:42.343Z,18.58
2022-12-03T07:52:09.952Z,17.33
2022-12-03T07:54:37.464Z,19.50
2022-12-03T07:57:04.845Z,17.92
2022-12-03T07:59:32.463Z,17.55
2022-12-03T08:01:59.881Z,17.92
2022-12-03T08:04:28.065Z,18.17
2022-12-03T08:06:59.059Z,19.90
2022-12-03T08:09:28.750Z,17.42
2022-12-03T08:11:59.823Z,17.63
2022-12-03T08:14:28.375Z,18.42
2022-12-03T08:16:55.632Z,17.65
2022-12-03T08:19:23.010Z,17.27
2022-12-03T08:21:50.208Z,17.10
2022-12-03T08:24:21.728Z,17.98
2022-12-03T08:26:49.965Z,17.80
2022-12-03T08:29:20.199Z,17.55
2022-12-03T08:32:01.438Z,18.88
2022-12-03T08:34:43.798Z,18.52
2022-12-03T08:37:19.492Z,20.38
2022-12-03T08:39:54.896Z,20.40
2022-12-03T08:42:42.248Z,20.23
2022-12-03T08:45:29.123Z,20.98
2022-12-03T08:48:29.670Z,19.80
2022-12-03T08:51:15.461Z,21.17
2022-12-03T08:54:06.053Z,19.23
2022-12-03T08:56:37.306Z,19.13
2022-12-03T08:59:19.969Z,20.60
2022-12-03T09:01:49.141Z,19.10
2022-12-03T09:04:39.618Z,19.73
2022-12-03T09:07:10.007Z,19.13
2022-12-03T09:09:40.440Z,18.55
2022-12-03T09:12:08.416Z,19.70
2022-12-03T09:14:36.246Z,18.20
2022-12-03T09:17:04.140Z,17.77
2022-12-03T09:19:32.107Z,18.15
2022-12-03T09:21:59.939Z,17.20
2022-12-03T09:24:28.021Z,17.27
2022-12-03T09:26:56.359Z,17.20
2022-12-03T09:29:24.184Z,17.02
2022-12-03T09:31:54.279Z,17.63
2022-12-03T09:34:23.692Z,16.88
2022-12-03T09:36:51.381Z,15.68
2022-12-03T09:39:19.025Z,16.95
2022-12-03T09:41:47.207Z,16.33
2022-12-03T09:44:17.926Z,15.52
2022-12-03T09:46:48.631Z,15.68
2022-12-03T09:49:20.043Z,16.67
2022-12-03T09:51:47.899Z,17.05
2022-12-03T09:54:26.900Z,16.25
2022-12-03T09:56:57.345Z,17.33
2022-12-03T09:59:32.235Z,15.73
2022-12-03T10:02:01.810Z,16.80
2022-12-03T10:04:29.936Z,17.15
2022-12-03T10:06:59.283Z,16.02
2022-12-03T10:09:29.311Z,16.02
2022-12-03T10:11:59.808Z,16.10
2022-12-03T10:14:28.324Z,16.25
2022-12-03T10:16:56.632Z,16.00
2022-12-03T10:19:31.483Z,17.13
2022-12-03T10:21:59.203Z,15.45
2022-12-03T10:24:30.902Z,16.02
2022-12-03T10:27:22.674Z,15.43
2022-12-03T10:30:00.402Z,15.87
2022-12-03T10:32:47.953Z,15.73
2022-12-03T10:35:37.409Z,16.33
2022-12-03T10:38:19.439Z,14.98
2022-12-03T10:40:46.789Z,15.27
2022-12-03T10:43:18.657Z,15.95
2022-12-03T10:46:05.384Z,15.52
2022-12-03T10:48:32.921Z,13.90
2022-12-03T10:51:21.221Z,13.65
2022-12-03T10:53:50.835Z,13.70
2022-12-03T10:56:36.626Z,13.82
2022-12-03T10:59:06.202Z,13.55
2022-12-03T11:01:33.920Z,13.00
2022-12-03T11:04:05.183Z,13.43
2022-12-03T11:06:38.555Z,13.55
2022-12-03T11:09:35.332Z,13.10
2022-12-03T11:12:21.539Z,12.02
2022-12-03T11:15:05.120Z,14.80
2022-12-03T11:17:41.324Z,12.73
2022-12-03T11:20:22.854Z,13.45
2022-12-03T11:22:56.780Z,13.20
2022-12-03T11:25:28.517Z,12.95
2022-12-03T11:28:13.859Z,11.88
2022-12-03T11:30:53.581Z,13.00
2022-12-03T11:33:40.538Z,12.63
2022-12-03T11:36:12.856Z,12.93
2022-12-03T11:38:55.359Z,12.50
2022-12-03T11:41:30.310Z,13.15
2022-12-03T11:44:22.177Z,12.48
2022-12-03T11:46:50.088Z,13.68
2022-12-03T11:49:44.433Z,12.85
2022-12-03T11:52:33.493Z,12.65
2022-12-03T11:55:24.978Z,14.20
2022-12-03T11:58:04.617Z,13.23
2022-12-03T12:00:32.507Z,14.93
2022-12-03T12:03:00.290Z,13.65
2022-12-03T12:05:32.671Z,14.45
2022-12-03T12:08:02.746Z,13.70
2022-12-03T12:10:49.615Z,12.88
2022-12-03T12:13:36.629Z,13.27
2022-12-03T12:16:07.951Z,13.77
2022-12-03T12:18:52.427Z,13.27
2022-12-03T12:21:48.915Z,14.80
2022-12-03T12:24:54.486Z,13.45
2022-12-03T12:27:53.709Z,14.35
2022-12-03T12:30:32.348Z,14.55
2022-12-03T12:33:20.858Z,13.18
2022-12-03T12:35:48.185Z,13.63
2022-12-03T12:38:25.448Z,14.75
2022-12-03T12:41:10.085Z,13.45
2022-12-03T12:43:39.488Z,13.40
2022-12-03T12:46:46.063Z,14.82
2022-12-03T12:49:01.228Z,14.38
2022-12-03T12:51:28.704Z,14.43
2022-12-03T12:54:03.417Z,12.98
2022-12-03T12:56:36.426Z,15.15
2022-12-03T12:59:26.407Z,14.05
2022-12-03T13:01:56.439Z,14.60
2022-12-03T13:04:25.813Z,15.18
2022-12-03T13:06:54.750Z,14.27
2022-12-03T13:09:25.968Z,14.32
2022-12-03T13:12:07.383Z,13.88
2022-12-03T13:14:37.423Z,14.75
2022-12-03T13:17:25.922Z,13.80
2022-12-03T13:20:03.651Z,13.68
2022-12-03T13:22:32.758Z,13.48
2022-12-03T13:25:58.280Z,13.80
2022-12-03T13:28:21.300Z,13.20
2022-12-03T13:30:48.719Z,14.10
2022-12-03T13:33:26.595Z,13.65
2022-12-03T13:35:57.527Z,14.40
2022-12-03T13:38:25.852Z,14.65
2022-12-03T13:41:02.937Z,14.13
2022-12-03T13:43:38.708Z,14.90
2022-12-03T13:46:11.583Z,15.18
2022-12-03T13:48:40.686Z,14.57
2022-12-03T13:51:30.702Z,13.82
2022-12-03T13:54:00.182Z,13.93
2022-12-03T13:56:34.360Z,15.27
2022-12-03T13:59:06.413Z,14.25
2022-12-03T14:01:52.415Z,13.95
2022-12-03T14:04:29.888Z,14.13
2022-12-03T14:06:59.789Z,13.98
2022-12-03T14:09:27.226Z,14.50
2022-12-03T14:12:13.552Z,14.32
2022-12-03T14:14:41.095Z,14.10
2022-12-03T14:17:10.272Z,13.18
2022-12-03T14:19:43.225Z,13.63
2022-12-03T14:22:18.046Z,13.35
2022-12-03T14:24:45.346Z,17.15
2022-12-03T14:27:12.762Z,14.40
2022-12-03T14:29:40.275Z,13.38
2022-12-03T14:32:08.974Z,13.57
2022-12-03T14:34:38.576Z,13.60
2022-12-03T14:37:05.954Z,14.23
2022-12-03T14:39:33.356Z,15.52
2022-12-03T14:42:16.797Z,13.73
2022-12-03T14:44:52.238Z,13.75
2022-12-03T14:47:25.225Z,14.70
2022-12-03T14:49:53.403Z,13.60
2022-12-03T14:52:20.954Z,14.50
2022-12-03T14:54:48.236Z,14.70
2022-12-03T14:57:16.419Z,12.68
2022-12-03T14:59:48.365Z,13.30
2022-12-03T15:02:16.014Z,17.13
2022-12-03T15:04:43.435Z,26.35
2022-12-03T15:07:10.785Z,22.45
2022-12-03T15:09:38.206Z,14.05
2022-12-03T15:12:06.327Z,12.95
2022-12-03T15:14:33.750Z,14.35
2022-12-03T15:17:03.208Z,13.82
2022-12-03T15:19:33.443Z,13.98
2022-12-03T15:22:00.963Z,14.95
2022-12-03T15:24:28.760Z,13.07
2022-12-03T15:26:56.358Z,13.15
2022-12-03T15:29:23.821Z,13.50
2022-12-03T15:31:51.340Z,13.75
2022-12-03T15:34:22.428Z,14.50
2022-12-03T15:36:53.217Z,12.88
2022-12-03T15:39:20.519Z,12.55
2022-12-03T15:41:48.638Z,12.15
2022-12-03T15:44:18.568Z,15.45
2022-12-03T15:46:46.136Z,14.95
2022-12-03T15:49:13.697Z,14.93
2022-12-03T15:52:00.288Z,14.10
2022-12-03T15:54:30.403Z,14.07
2022-12-03T15:56:58.261Z,14.27
2022-12-03T15:59:25.944Z,14.05
2022-12-03T16:01:53.510Z,14.82
2022-12-03T16:04:20.858Z,15.30
2022-12-03T16:06:48.205Z,13.90
2022-12-03T16:09:15.735Z,15.15
2022-12-03T16:11:43.312Z,14.35
2022-12-03T16:14:10.517Z,14.38
2022-12-03T16:16:38.187Z,14.15
2022-12-03T16:19:05.585Z,15.55
2022-12-03T16:21:34.897Z,16.02
2022-12-03T16:24:02.860Z,16.30
2022-12-03T16:26:30.639Z,17.42
2022-12-03T16:28:58.002Z,16.02
2022-12-03T16:31:25.450Z,16.10
2022-12-03T16:34:02.484Z,15.73
2022-12-03T16:36:35.539Z,17.27
2022-12-03T16:39:03.165Z,16.85
2022-12-03T16:41:30.702Z,16.38
2022-12-03T16:44:48.469Z,15.90
2022-12-03T16:47:16.024Z,15.23
2022-12-03T16:49:43.366Z,15.32
2022-12-03T16:52:10.935Z,15.45
2022-12-03T16:54:38.579Z,14.50
2022-12-03T16:57:06.191Z,15.35
2022-12-03T16:59:33.918Z,15.18
2022-12-03T17:02:01.729Z,15.63
2022-12-03T17:04:29.298Z,16.17
2022-12-03T17:06:56.803Z,15.50
2022-12-03T17:09:25.069Z,14.68
2022-12-03T17:11:55.233Z,15.00
2022-12-03T17:14:32.819Z,13.93
2022-12-03T17:17:01.726Z,15.02
2022-12-03T17:19:34.243Z,14.25
2022-12-03T17:22:05.596Z,14.48
2022-12-03T17:24:33.953Z,15.13
2022-12-03T17:27:06.495Z,15.60
2022-12-03T17:29:34.878Z,16.23
2022-12-03T17:32:04.035Z,15.13
2022-12-03T17:34:34.503Z,15.57
2022-12-03T17:37:03.648Z,16.70
2022-12-03T17:39:34.352Z,16.25
2022-12-03T17:42:08.032Z,15.77
2022-12-03T17:44:39.169Z,14.60
2022-12-03T17:47:09.688Z,14.68
2022-12-03T17:49:39.890Z,14.60
2022-12-03T17:52:08.469Z,15.98
2022-12-03T17:55:01.973Z,16.00
2022-12-03T17:57:25.540Z,16.20
2022-12-03T17:59:53.700Z,16.45
2022-12-03T18:02:25.891Z,16.27
2022-12-03T18:04:54.082Z,14.63
2022-12-03T18:07:22.171Z,16.23
2022-12-03T18:09:55.036Z,14.77
2022-12-03T18:12:26.637Z,14.98
2022-12-03T18:15:03.025Z,13.85
2022-12-03T18:17:33.465Z,14.98
2022-12-03T18:20:05.661Z,13.95
2022-12-03T18:22:35.043Z,14.25
2022-12-03T18:25:06.312Z,15.27
2022-12-03T18:27:34.473Z,14.32
2022-12-03T18:30:06.315Z,15.15
2022-12-03T18:32:34.798Z,14.70
2022-12-03T18:35:04.087Z,14.85
2022-12-03T18:37:33.380Z,13.35
2022-12-03T18:40:12.092Z,14.38
2022-12-03T18:42:40.478Z,14.60
2022-12-03T18:45:15.891Z,15.23
2022-12-03T18:47:44.270Z,14.15
2022-12-03T18:50:13.314Z,14.07
2022-12-03T18:52:43.948Z,13.60
2022-12-03T18:55:22.067Z,14.13
2022-12-03T18:57:50.078Z,14.38
2022-12-03T19:00:18.884Z,14.23
2022-12-03T19:03:03.184Z,14.48
2022-12-03T19:05:36.475Z,13.18
2022-12-03T19:08:14.215Z,15.18
2022-12-03T19:10:43.615Z,14.82
2022-12-03T19:13:13.711Z,15.98
2022-12-03T19:15:42.005Z,13.50
2022-12-03T19:18:09.787Z,15.30
2022-12-03T19:20:42.238Z,14.40
2022-12-03T19:23:13.017Z,13.18
2022-12-03T19:25:41.203Z,17.35
2022-12-03T19:28:09.847Z,13.10
2022-12-03T19:30:37.606Z,15.25
2022-12-03T19:33:05.591Z,13.40
2022-12-03T19:35:39.906Z,12.82
2022-12-03T19:38:07.507Z,12.85
2022-12-03T19:40:35.126Z,13.43
2022-12-03T19:43:02.771Z,13.45
2022-12-03T19:45:31.680Z,14.27
2022-12-03T19:48:00.390Z,15.02
2022-12-03T19:50:28.210Z,13.18
2022-12-03T19:52:55.771Z,15.32
2022-12-03T19:55:23.355Z,16.20
2022-12-03T19:57:54.274Z,15.27
2022-12-03T20:00:22.562Z,15.07
2022-12-03T20:02:50.836Z,14.52
2022-12-03T20:05:18.860Z,18.13
2022-12-03T20:07:46.941Z,13.88
2022-12-03T20:10:14.414Z,19.60
2022-12-03T20:12:42.207Z,15.40
2022-12-03T20:15:11.109Z,20.63
2022-12-03T20:17:38.887Z,16.38
2022-12-03T20:20:08.259Z,14.25
2022-12-03T20:22:36.090Z,15.70
2022-12-03T20:25:04.354Z,14.48
2022-12-03T20:28:04.927Z,15.65
2022-12-03T20:30:32.907Z,15.30
2022-12-03T20:33:00.827Z,14.93
2022-12-03T20:35:30.883Z,14.40
2022-12-03T20:37:58.740Z,16.23
2022-12-03T20:40:26.421Z,16.08
2022-12-03T20:42:54.096Z,15.50
2022-12-03T20:45:21.758Z,18.23
2022-12-03T20:47:51.499Z,16.63
2022-12-03T20:50:19.335Z,17.42
2022-12-03T20:53:03.634Z,17.80
2022-12-03T20:55:34.589Z,17.83
2022-12-03T20:58:03.015Z,21.20
2022-12-03T21:00:31.857Z,18.48
2022-12-03T21:02:59.697Z,16.52
2022-12-03T21:05:27.589Z,18.55
2022-12-03T21:08:01.407Z,22.27
2022-12-03T21:10:44.811Z,17.40
2022-12-03T21:13:18.538Z,18.67
2022-12-03T21:15:47.385Z,19.33
2022-12-03T21:18:17.829Z,21.05
2022-12-03T21:20:48.241Z,19.60
2022-12-03T21:23:15.911Z,19.08
2022-12-03T21:25:43.806Z,20.60
2022-12-03T21:28:11.776Z,18.20
2022-12-03T21:30:40.475Z,18.98
2022-12-03T21:33:08.132Z,21.50
2022-12-03T21:35:39.773Z,20.63
2022-12-03T21:38:08.590Z,22.65
2022-12-03T21:40:36.113Z,22.55
2022-12-03T21:43:03.510Z,18.45
2022-12-03T21:45:31.054Z,21.20
2022-12-03T21:47:58.711Z,19.83
2022-12-03T21:50:28.686Z,23.50
2022-12-03T21:52:56.521Z,19.90
2022-12-03T21:55:24.732Z,20.58
2022-12-03T21:57:52.667Z,19.77
2022-12-03T22:00:21.780Z,20.13
2022-12-03T22:02:49.541Z,25.27
2022-12-03T22:05:17.404Z,20.73
2022-12-03T22:07:44.897Z,23.30
2022-12-03T22:10:13.399Z,20.70
2022-12-03T22:12:43.267Z,23.10
2022-12-03T22:15:18.185Z,19.98
2022-12-03T22:17:46.411Z,20.85
2022-12-03T22:20:14.396Z,20.65
2022-12-03T22:22:41.976Z,20.30
2022-12-03T22:25:10.130Z,20.77
2022-12-03T22:27:37.775Z,21.42
2022-12-03T22:30:07.149Z,20.92
2022-12-03T22:32:39.800Z,20.52
2022-12-03T22:35:08.359Z,20.98
2022-12-03T22:37:42.349Z,19.95
2022-12-03T22:40:10.513Z,19.60
2022-12-03T22:42:37.721Z,21.00
2022-12-03T22:45:06.453Z,20.30
2022-12-03T22:47:34.098Z,20.55
2022-12-03T22:50:01.581Z,19.88
2022-12-03T22:52:30.406Z,20.08
2022-12-03T22:54:58.027Z,20.58
2022-12-03T22:57:25.729Z,18.75
2022-12-03T22:59:55.118Z,20.40
2022-12-03T23:02:23.486Z,19.45
2022-12-03T23:04:59.006Z,19.42
2022-12-03T23:07:29.136Z,19.25
2022-12-03T23:09:59.977Z,18.75
2022-12-03T23:12:40.716Z,19.33
2022-12-03T23:15:09.997Z,19.23
2022-12-03T23:17:37.677Z,19.23
2022-12-03T23:20:06.730Z,19.77
2022-12-03T23:22:34.627Z,18.95
2022-12-03T23:25:10.156Z,19.02
2022-12-03T23:27:37.964Z,20.33
2022-12-03T23:30:07.955Z,18.30
2022-12-03T23:32:36.549Z,18.75
2022-12-03T23:35:05.379Z,18.73
2022-12-03T23:37:33.252Z,18.38
2022-12-03T23:40:02.536Z,18.55
2022-12-03T23:42:43.493Z,19.38
2022-12-03T23:45:11.602Z,17.75
2022-12-03T23:47:47.032Z,18.23
2022-12-03T23:50:14.980Z,17.65
2022-12-03T23:52:46.836Z,19.35
2022-12-03T23:55:30.023Z,19.17
2022-12-03T23:57:57.637Z,19.65
